Time;durP1;ratioP1;P1;durP2;ratioP2;P2;SDS_P1;SDS_P2;PMS_P1;PMS_P2;Temp;Humidity;BMP_temperature;BMP_pressure;BME280_temperature;BME280_humidity;BME280_pressure;Samples;Min_cycle;Max_cycle;Signal;HPM_P1;HPM_P2
2022/07/09 00:01:39;;;;;;;;;3.25;3.00;;;;;21.77;48.21;102039.44;5064184;28;45495;-79
2022/07/09 00:04:04;;;;;;;;;3.00;3.00;;;;;21.77;48.31;102044.81;5067720;27;45473;-80
2022/07/09 00:06:31;;;;;;;;;3.00;3.00;;;;;21.70;48.25;102034.38;5063552;27;45481;-79
2022/07/09 00:08:57;;;;;;;;;3.00;3.00;;;;;21.76;48.28;102047.56;5062295;28;45584;-78
2022/07/09 00:11:23;;;;;;;;;2.00;2.00;;;;;21.76;48.53;102045.75;5065275;28;45494;-80
2022/07/09 00:13:48;;;;;;;;;8.00;7.00;;;;;21.62;48.77;102035.59;5066100;28;45606;-79
2022/07/09 00:16:14;;;;;;;;;7.00;4.75;;;;;21.58;48.96;102035.78;5066407;28;45541;-80
2022/07/09 00:18:39;;;;;;;;;6.25;3.00;;;;;21.39;49.80;102016.84;5062738;28;46448;-79
2022/07/09 00:21:05;;;;;;;;;5.00;4.00;;;;;21.48;49.72;102041.53;5058384;28;45447;-79
2022/07/09 00:23:30;;;;;;;;;2.00;2.00;;;;;21.43;49.62;102029.22;5057237;28;45413;-81
2022/07/09 00:25:55;;;;;;;;;5.00;5.00;;;;;21.45;50.02;102047.03;5064887;27;45469;-80
2022/07/09 00:28:21;;;;;;;;;5.75;5.75;;;;;21.41;49.56;102037.34;5069876;28;45440;-81
2022/07/09 00:30:46;;;;;;;;;3.50;3.50;;;;;21.33;50.37;102026.03;5068653;28;45617;-80
2022/07/09 00:33:11;;;;;;;;;4.50;3.50;;;;;21.32;50.60;102037.75;5070420;27;45463;-80
2022/07/09 00:35:37;;;;;;;;;6.00;5.00;;;;;21.24;50.60;102030.00;5059726;27;45355;-80
2022/07/09 00:38:02;;;;;;;;;2.25;2.25;;;;;21.24;50.52;102026.41;5057663;27;45484;-81
2022/07/09 00:40:27;;;;;;;;;3.50;3.50;;;;;21.18;50.92;102018.63;5071625;28;48120;-80
2022/07/09 00:42:53;;;;;;;;;3.00;3.00;;;;;21.21;50.71;102021.16;5073269;28;45268;-80
2022/07/09 00:45:18;;;;;;;;;5.25;2.50;;;;;21.21;51.04;102030.13;5068655;28;45680;-80
2022/07/09 00:47:44;;;;;;;;;6.00;3.00;;;;;21.07;50.85;102009.22;5076208;28;46168;-81
2022/07/09 00:50:10;;;;;;;;;4.25;3.00;;;;;21.17;51.19;102028.50;5084255;28;45348;-81
2022/07/09 00:52:38;;;;;;;;;5.00;5.00;;;;;21.09;51.18;102018.06;5076088;28;44835;-80
2022/07/09 00:55:05;;;;;;;;;4.50;4.00;;;;;21.11;50.98;102035.00;5065542;28;45581;-81
2022/07/09 00:57:31;;;;;;;;;6.25;5.00;;;;;21.01;51.13;102009.44;5055408;28;45521;-81
2022/07/09 00:59:58;;;;;;;;;6.00;4.50;;;;;21.12;51.11;102030.53;5068924;27;45456;-80
2022/07/09 01:02:24;;;;;;;;;2.25;2.25;;;;;21.11;51.07;102024.25;5063919;28;45426;-81
2022/07/09 01:04:50;;;;;;;;;7.00;7.00;;;;;21.06;51.43;102028.94;5064781;27;45791;-80
2022/07/09 01:07:15;;;;;;;;;5.00;5.00;;;;;20.96;51.18;102011.44;5062355;27;45465;-81
2022/07/09 01:09:41;;;;;;;;;3.00;3.00;;;;;20.95;51.08;102012.38;5064393;28;45505;-80
2022/07/09 01:12:07;;;;;;;;;5.50;3.50;;;;;20.91;51.54;102006.25;5064300;28;45456;-80
2022/07/09 01:14:33;;;;;;;;;3.00;3.00;;;;;20.97;51.58;102012.31;5061453;28;45507;-81
2022/07/09 01:17:00;;;;;;;;;5.00;5.00;;;;;20.97;51.46;102015.91;5063393;27;46484;-80
2022/07/09 01:19:26;;;;;;;;;6.25;4.00;;;;;20.92;51.68;102012.50;5061018;28;45436;-79
2022/07/09 01:21:52;;;;;;;;;5.75;5.75;;;;;20.83;51.86;102003.03;5088304;27;45458;-80
2022/07/09 01:24:17;;;;;;;;;5.00;5.00;;;;;20.79;51.78;102005.91;5057094;28;45537;-80
2022/07/09 01:26:43;;;;;;;;;3.75;3.00;;;;;20.72;52.04;101998.06;5067390;28;45490;-79
2022/07/09 01:29:08;;;;;;;;;3.00;3.00;;;;;20.70;52.04;101986.53;5060357;27;45421;-79
2022/07/09 01:31:33;;;;;;;;;1.75;1.75;;;;;20.59;52.16;101978.88;5064452;28;45536;-78
2022/07/09 01:33:59;;;;;;;;;3.25;3.25;;;;;20.52;52.17;101971.13;5066373;28;45529;-79
2022/07/09 01:36:24;;;;;;;;;3.25;3.25;;;;;20.65;52.37;102001.97;5060849;28;47287;-79
2022/07/09 01:38:50;;;;;;;;;4.00;4.00;;;;;20.52;52.34;101984.53;5060614;28;45466;-80
2022/07/09 01:41:15;;;;;;;;;5.00;5.00;;;;;20.62;52.32;102004.72;5053372;28;45329;-78
2022/07/09 01:43:40;;;;;;;;;5.00;3.00;;;;;20.45;52.93;101978.53;5054903;28;45527;-80
2022/07/09 01:46:06;;;;;;;;;5.00;2.75;;;;;20.55;52.67;101997.84;5059561;28;46244;-79
2022/07/09 01:48:34;;;;;;;;;7.75;6.50;;;;;20.55;52.89;102000.53;5064476;27;45601;-77
2022/07/09 01:51:01;;;;;;;;;5.00;5.00;;;;;20.51;52.68;102005.16;5060189;28;45428;-79
2022/07/09 01:53:26;;;;;;;;;6.25;3.00;;;;;20.48;52.90;101993.66;5066930;27;45514;-78
2022/07/09 01:55:52;;;;;;;;;3.25;3.25;;;;;20.36;52.97;101979.78;5063936;28;45494;-79
2022/07/09 01:58:17;;;;;;;;;4.00;4.00;;;;;20.49;52.58;101990.91;5071415;27;45465;-79
2022/07/09 02:00:43;;;;;;;;;3.50;3.50;;;;;20.43;52.99;101977.72;5069563;28;45382;-79
2022/07/09 02:03:09;;;;;;;;;5.25;5.25;;;;;20.34;52.96;101967.34;5071468;27;45601;-78
2022/07/09 02:05:34;;;;;;;;;5.50;4.00;;;;;20.46;53.34;101987.47;5059751;27;45416;-80
2022/07/09 02:08:00;;;;;;;;;3.50;3.50;;;;;20.24;53.06;101951.59;5069551;28;45550;-79
2022/07/09 02:10:25;;;;;;;;;3.25;3.25;;;;;20.42;53.17;101981.31;5069020;28;45542;-79
2022/07/09 02:12:50;;;;;;;;;5.00;5.00;;;;;20.42;53.23;101976.84;5069465;27;45389;-79
2022/07/09 02:15:16;;;;;;;;;3.00;3.00;;;;;20.38;53.39;101980.59;5069465;27;45419;-80
2022/07/09 02:17:41;;;;;;;;;6.00;4.50;;;;;20.22;53.54;101952.59;5068527;27;45735;-80
2022/07/09 02:20:08;;;;;;;;;5.75;5.00;;;;;20.18;53.63;101951.84;5060973;28;45521;-78
2022/07/09 02:22:34;;;;;;;;;8.00;7.50;;;;;20.32;53.54;101979.97;5069384;28;45585;-79
2022/07/09 02:24:59;;;;;;;;;7.00;5.50;;;;;20.30;53.67;101971.97;5066706;27;45520;-78
2022/07/09 02:27:25;;;;;;;;;5.00;5.00;;;;;20.20;53.64;101951.78;5071306;27;45376;-79
2022/07/09 02:29:50;;;;;;;;;9.25;6.25;;;;;20.27;53.76;101965.81;5070899;28;45452;-79
2022/07/09 02:32:16;;;;;;;;;5.00;5.00;;;;;20.22;53.73;101955.25;5057372;28;45576;-79
2022/07/09 02:34:41;;;;;;;;;8.00;3.50;;;;;20.21;54.07;101961.59;5062471;28;45405;-80
2022/07/09 02:37:07;;;;;;;;;8.00;6.25;;;;;20.18;54.29;101959.88;5069917;28;45497;-80
2022/07/09 02:39:33;;;;;;;;;6.00;4.50;;;;;20.17;54.02;101959.94;5064145;27;45501;-79
2022/07/09 02:41:59;;;;;;;;;7.75;4.75;;;;;20.13;54.18;101959.19;5064427;28;45727;-80
2022/07/09 02:44:24;;;;;;;;;5.25;5.00;;;;;19.87;54.17;101909.19;5064855;28;46147;-80
2022/07/09 02:46:50;;;;;;;;;5.25;5.25;;;;;20.08;54.19;101949.56;5067147;28;45876;-80
2022/07/09 02:49:15;;;;;;;;;5.50;5.50;;;;;20.05;54.47;101951.41;5065288;28;45463;-80
2022/07/09 02:51:41;;;;;;;;;6.50;5.00;;;;;20.06;54.58;101958.56;5067721;28;45499;-80
2022/07/09 02:54:07;;;;;;;;;4.00;4.00;;;;;19.97;54.51;101942.81;5067845;28;47803;-80
2022/07/09 02:56:32;;;;;;;;;5.25;3.00;;;;;19.98;54.62;101949.94;5071392;28;45503;-80
2022/07/09 02:58:58;;;;;;;;;3.50;3.50;;;;;19.94;54.85;101950.09;5075815;27;45562;-80
2022/07/09 03:01:23;;;;;;;;;3.00;3.00;;;;;19.99;54.70;101958.84;5060304;27;45417;-79
2022/07/09 03:03:49;;;;;;;;;5.50;5.50;;;;;19.96;54.52;101950.91;5056016;28;46200;-79
2022/07/09 03:06:14;;;;;;;;;8.00;7.00;;;;;19.90;54.76;101945.78;5058948;28;45590;-80
2022/07/09 03:08:40;;;;;;;;;5.75;5.75;;;;;19.94;54.74;101952.78;5062446;28;45539;-78
2022/07/09 03:11:09;;;;;;;;;5.50;4.75;;;;;19.95;54.79;101966.16;5066043;28;45602;-80
2022/07/09 03:13:35;;;;;;;;;6.00;6.00;;;;;19.75;54.78;101929.28;5073942;27;45373;-80
2022/07/09 03:16:01;;;;;;;;;7.50;6.25;;;;;19.83;54.77;101953.16;5071300;28;45596;-80
2022/07/09 03:18:26;;;;;;;;;5.00;5.00;;;;;19.90;54.99;101960.06;5062121;28;45418;-80
2022/07/09 03:20:52;;;;;;;;;6.25;6.25;;;;;19.86;54.86;101961.13;5059456;28;45465;-79
2022/07/09 03:23:17;;;;;;;;;7.00;6.75;;;;;19.88;55.15;101965.47;5065383;28;45448;-79
2022/07/09 03:25:43;;;;;;;;;6.00;5.00;;;;;19.81;55.26;101957.72;5057231;28;45498;-79
2022/07/09 03:28:09;;;;;;;;;6.75;5.75;;;;;19.62;54.92;101923.50;5066909;28;45764;-79
2022/07/09 03:30:34;;;;;;;;;9.50;5.25;;;;;19.83;55.34;101967.47;5067280;28;45479;-79
2022/07/09 03:33:00;;;;;;;;;5.75;5.75;;;;;19.64;55.24;101934.19;5073546;27;45522;-79
2022/07/09 03:35:25;;;;;;;;;6.00;5.50;;;;;19.83;55.38;101972.84;5075139;27;45493;-79
2022/07/09 03:37:51;;;;;;;;;5.00;5.00;;;;;19.80;55.32;101972.06;5066774;27;45567;-79
2022/07/09 03:40:16;;;;;;;;;8.50;6.25;;;;;19.80;55.47;101977.41;5060866;28;45422;-79
2022/07/09 03:42:41;;;;;;;;;7.00;6.00;;;;;19.53;55.32;101924.72;5065054;28;46250;-81
2022/07/09 03:45:07;;;;;;;;;7.50;7.00;;;;;19.56;55.52;101929.09;5071258;28;45482;-79
2022/07/09 03:47:32;;;;;;;;;7.25;7.25;;;;;19.80;55.55;101972.06;5061953;28;45397;-79
2022/07/09 03:49:58;;;;;;;;;6.00;6.00;;;;;19.80;55.44;101977.41;5055349;28;45454;-79
2022/07/09 03:52:23;;;;;;;;;5.25;5.25;;;;;19.79;55.32;101970.31;5065974;27;45439;-80
2022/07/09 03:54:49;;;;;;;;;6.75;5.50;;;;;19.77;55.54;101966.75;5074581;27;45364;-79
2022/07/09 03:57:14;;;;;;;;;5.75;5.00;;;;;19.75;55.41;101971.31;5060277;28;45409;-78
2022/07/09 03:59:39;;;;;;;;;5.00;5.00;;;;;19.78;55.39;101979.28;5053175;28;45379;-80
2022/07/09 04:02:05;;;;;;;;;6.75;6.75;;;;;19.82;55.36;101980.94;5059897;28;45482;-79
2022/07/09 04:04:31;;;;;;;;;7.00;6.25;;;;;19.82;55.25;101991.66;5055111;28;45511;-79
2022/07/09 04:06:56;;;;;;;;;5.50;5.50;;;;;19.82;55.35;101986.31;5066624;27;45607;-79
2022/07/09 04:09:22;;;;;;;;;7.25;7.25;;;;;19.73;55.28;101971.38;5070060;27;45408;-80
2022/07/09 04:11:48;;;;;;;;;5.50;5.50;;;;;19.88;55.01;101996.81;5065024;28;47447;-79
2022/07/09 04:14:14;;;;;;;;;6.50;6.50;;;;;19.90;55.11;101992.25;5061896;27;46116;-80
2022/07/09 04:16:40;;;;;;;;;4.00;4.00;;;;;19.92;55.11;102001.13;5062839;27;45465;-80
2022/07/09 04:19:06;;;;;;;;;5.75;5.75;;;;;19.88;55.12;101996.81;5071335;28;45357;-79
2022/07/09 04:21:31;;;;;;;;;6.25;6.25;;;;;19.86;54.76;101982.59;5062866;27;46146;-81
2022/07/09 04:23:57;;;;;;;;;5.75;5.75;;;;;20.00;54.74;101985.63;5058806;28;45398;-81
2022/07/09 04:26:23;;;;;;;;;6.00;6.00;;;;;20.18;54.56;101993.91;5053706;28;45526;-80
2022/07/09 04:28:49;;;;;;;;;5.50;5.50;;;;;20.23;54.49;101995.47;5054142;28;45621;-80
2022/07/09 04:31:15;;;;;;;;;4.25;4.25;;;;;20.24;53.97;101978.44;5066182;28;46148;-78
2022/07/09 04:33:42;;;;;;;;;7.00;5.25;;;;;20.41;53.98;101979.59;5063429;28;45435;-78
2022/07/09 04:36:07;;;;;;;;;7.50;6.00;;;;;20.46;53.64;101988.34;5073436;27;45373;-79
2022/07/09 04:38:33;;;;;;;;;6.75;6.75;;;;;20.41;53.61;101980.47;5068114;27;45423;-79
2022/07/09 04:40:58;;;;;;;;;6.75;6.75;;;;;20.53;53.41;101991.69;5055835;28;45442;-79
2022/07/09 04:43:23;;;;;;;;;5.00;5.00;;;;;20.55;53.67;101992.47;5062195;27;45392;-79
2022/07/09 04:45:49;;;;;;;;;6.00;6.00;;;;;20.54;53.33;101996.09;5056955;28;45471;-79
2022/07/09 04:48:14;;;;;;;;;5.75;5.50;;;;;20.47;53.48;101973.13;5010597;28;1432003;-80
2022/07/09 04:50:39;;;;;;;;;5.00;5.00;;;;;20.52;53.51;101968.44;5073107;28;46124;-80
2022/07/09 04:53:05;;;;;;;;;5.50;5.25;;;;;20.71;53.30;101982.91;5064525;28;45526;-81
2022/07/09 04:55:30;;;;;;;;;6.00;6.00;;;;;20.69;52.95;101982.06;5053772;28;45437;-78
2022/07/09 04:57:56;;;;;;;;;4.50;4.50;;;;;20.73;53.17;101986.41;5069878;28;45544;-79
2022/07/09 05:00:21;;;;;;;;;4.00;4.00;;;;;20.79;52.92;101987.97;5065032;27;46423;-79
2022/07/09 05:02:47;;;;;;;;;7.50;6.00;;;;;20.76;52.78;101978.22;5058085;28;45508;-77
2022/07/09 05:05:13;;;;;;;;;6.75;5.00;;;;;20.90;52.34;101972.25;5068233;27;45378;-79
2022/07/09 05:07:39;;;;;;;;;7.00;6.00;;;;;21.04;52.00;101974.38;5071230;28;45365;-80
2022/07/09 05:10:05;;;;;;;;;7.75;6.50;;;;;21.35;51.98;101989.22;5057566;28;46435;-79
2022/07/09 05:12:31;;;;;;;;;4.25;4.25;;;;;21.75;51.51;101982.09;5059202;27;45493;-81
2022/07/09 05:14:57;;;;;;;;;6.75;6.75;;;;;22.00;50.12;101980.97;5064692;28;45556;-80
2022/07/09 05:17:23;;;;;;;;;3.25;3.25;;;;;22.49;49.54;101989.47;5060772;28;45511;-78
2022/07/09 05:19:49;;;;;;;;;7.00;7.00;;;;;23.40;47.52;101994.91;5071939;28;45426;-77
2022/07/09 05:22:14;;;;;;;;;5.00;5.00;;;;;24.35;46.04;101980.81;5060705;27;45416;-79
2022/07/09 05:24:40;;;;;;;;;6.25;6.00;;;;;25.28;43.63;101986.31;5071819;28;45394;-78
2022/07/09 05:27:06;;;;;;;;;7.00;6.00;;;;;26.14;41.89;101981.03;5071869;27;45425;-79
2022/07/09 05:29:32;;;;;;;;;7.25;7.25;;;;;26.72;40.46;101983.66;5072587;27;46078;-79
2022/07/09 05:31:57;;;;;;;;;7.00;6.00;;;;;26.86;39.63;101977.31;5056249;27;45380;-80
2022/07/09 05:34:23;;;;;;;;;3.00;3.00;;;;;27.43;38.64;101979.75;5064607;27;45272;-80
2022/07/09 05:36:51;;;;;;;;;3.50;3.50;;;;;28.00;38.26;101974.91;5080095;27;45417;-80
2022/07/09 05:39:17;;;;;;;;;5.50;5.50;;;;;28.51;36.84;101961.22;5044652;28;45434;-80
2022/07/09 05:41:42;;;;;;;;;6.75;4.00;;;;;29.17;36.16;101955.34;5101655;27;45465;-80
2022/07/09 05:44:07;;;;;;;;;5.25;5.25;;;;;29.63;34.79;101956.31;5065531;27;45501;-80
2022/07/09 05:46:33;;;;;;;;;5.50;4.00;;;;;29.92;33.90;101967.63;5065653;27;45392;-81
2022/07/09 05:48:58;;;;;;;;;4.25;4.25;;;;;29.79;34.35;101958.69;5056632;28;45531;-80
2022/07/09 05:51:23;;;;;;;;;5.00;5.00;;;;;29.76;34.08;101967.97;5056575;28;45383;-81
2022/07/09 05:53:48;;;;;;;;;5.50;5.50;;;;;29.94;33.56;101959.31;5056868;28;45316;-81
2022/07/09 05:56:14;;;;;;;;;7.00;5.00;;;;;30.56;32.97;101954.31;5055775;28;45561;-80
2022/07/09 05:58:39;;;;;;;;;7.50;7.50;;;;;31.34;31.49;101965.91;5061969;28;46023;-80
2022/07/09 06:01:06;;;;;;;;;6.75;4.50;;;;;31.94;31.26;101966.09;5065905;28;45509;-80
2022/07/09 06:03:31;;;;;;;;;8.00;7.00;;;;;32.31;30.53;101973.75;5064872;27;45317;-81
2022/07/09 06:05:57;;;;;;;;;7.50;6.00;;;;;32.73;30.13;101964.47;5068480;28;45397;-81
2022/07/09 06:08:24;;;;;;;;;8.00;6.00;;;;;33.14;29.18;101967.06;5069821;28;46946;-81
2022/07/09 06:10:50;;;;;;;;;6.00;6.00;;;;;33.36;28.83;101939.41;5057847;28;45506;-80
2022/07/09 06:13:15;;;;;;;;;4.25;4.25;;;;;33.89;27.90;101945.28;5058165;28;45494;-81
2022/07/09 06:15:41;;;;;;;;;6.00;5.25;;;;;34.47;27.66;101964.19;5066466;28;45420;-80
2022/07/09 06:18:06;;;;;;;;;5.00;5.00;;;;;34.84;27.09;101954.97;5071414;28;45464;-80
2022/07/09 06:20:32;;;;;;;;;8.00;8.00;;;;;34.97;26.58;101972.91;5069707;27;45496;-79
2022/07/09 06:22:57;;;;;;;;;5.00;4.00;;;;;35.18;26.48;101959.72;5065390;28;45536;-79
2022/07/09 06:25:22;;;;;;;;;7.00;5.50;;;;;35.60;26.53;101952.63;5065279;28;45466;-79
2022/07/09 06:27:48;;;;;;;;;6.25;6.25;;;;;35.92;25.99;101959.34;5063857;28;47043;-79
2022/07/09 06:30:13;;;;;;;;;6.25;6.25;;;;;36.15;24.71;101972.50;5064679;28;45533;-80
2022/07/09 06:32:39;;;;;;;;;6.00;6.00;;;;;36.39;25.06;101964.38;5072476;27;45378;-79
2022/07/09 06:35:05;;;;;;;;;6.00;6.00;;;;;36.51;24.90;101964.06;5065873;28;45548;-79
2022/07/09 06:37:30;;;;;;;;;7.00;7.00;;;;;36.66;24.72;101961.50;5062688;28;46412;-79
2022/07/09 06:39:57;;;;;;;;;7.75;7.25;;;;;36.72;24.64;101958.06;5075395;28;45253;-80
2022/07/09 06:42:23;;;;;;;;;6.50;6.50;;;;;36.93;24.70;101946.59;5083878;28;45324;-79
2022/07/09 06:44:48;;;;;;;;;7.00;7.00;;;;;37.25;23.78;101961.41;5075769;27;45415;-79
2022/07/09 06:47:13;;;;;;;;;7.75;7.00;;;;;37.56;23.73;101967.00;5057106;28;46082;-80
2022/07/09 06:49:39;;;;;;;;;7.00;6.00;;;;;37.54;23.46;101963.56;5064809;28;45478;-79
2022/07/09 06:52:05;;;;;;;;;5.25;5.25;;;;;37.72;23.80;101970.78;5069419;28;45334;-79
2022/07/09 06:54:31;;;;;;;;;6.75;6.50;;;;;37.82;22.98;101971.44;5067116;27;45515;-79
2022/07/09 06:56:56;;;;;;;;;7.50;6.00;;;;;37.65;23.24;101957.69;5065324;28;46466;-79
2022/07/09 06:59:25;;;;;;;;;5.75;5.75;;;;;37.86;23.06;101972.81;5059476;27;45410;-80
2022/07/09 07:01:51;;;;;;;;;6.00;5.00;;;;;38.00;23.72;101962.94;5066536;28;45387;-80
2022/07/09 07:04:16;;;;;;;;;7.50;6.00;;;;;38.33;23.46;101960.03;5074356;27;45359;-82
2022/07/09 07:06:42;;;;;;;;;6.50;5.25;;;;;38.66;22.42;101966.22;5074153;28;46480;-81
2022/07/09 07:09:08;;;;;;;;;7.25;5.75;;;;;38.56;22.29;101949.00;5075652;27;45383;-81
2022/07/09 07:11:34;;;;;;;;;7.00;5.50;;;;;38.29;22.94;101933.84;5075569;27;45405;-80
2022/07/09 07:13:59;;;;;;;;;4.50;4.50;;;;;38.51;23.17;101965.28;5075682;28;45626;-82
2022/07/09 07:16:24;;;;;;;;;7.75;7.00;;;;;38.55;21.93;101955.56;5075791;27;45391;-81
2022/07/09 07:18:50;;;;;;;;;5.50;5.00;;;;;38.69;22.36;101951.19;5063972;28;45769;-81
2022/07/09 07:21:15;;;;;;;;;3.25;2.25;;;;;39.08;22.18;101967.63;5055318;28;45451;-80
2022/07/09 07:23:40;;;;;;;;;5.00;4.00;;;;;38.93;21.48;101952.88;5055358;28;45345;-80
2022/07/09 07:26:06;;;;;;;;;6.00;6.00;;;;;38.56;21.98;101960.06;5054755;28;45396;-80
2022/07/09 07:28:32;;;;;;;;;7.25;5.50;;;;;38.34;22.50;101951.56;5054907;28;45468;-79
2022/07/09 07:30:57;;;;;;;;;7.75;6.50;;;;;38.81;21.99;101960.78;5055255;28;45448;-80
2022/07/09 07:33:22;;;;;;;;;3.00;3.00;;;;;39.23;21.99;101958.53;5055469;28;45420;-79
2022/07/09 07:35:48;;;;;;;;;6.50;5.50;;;;;39.43;22.17;101956.94;5068808;28;45429;-79
2022/07/09 07:38:13;;;;;;;;;5.25;4.25;;;;;39.51;21.15;101955.09;5054723;28;45436;-79
2022/07/09 07:40:39;;;;;;;;;4.75;4.75;;;;;39.58;21.23;101959.72;5055083;28;45383;-80
2022/07/09 07:43:04;;;;;;;;;5.00;5.00;;;;;39.90;21.66;101959.53;5054849;28;45487;-80
2022/07/09 07:45:31;;;;;;;;;6.75;5.25;;;;;39.85;20.80;101967.56;5070532;28;46353;-79
2022/07/09 07:47:56;;;;;;;;;4.00;4.00;;;;;39.34;21.10;101971.88;5054413;28;45370;-81
2022/07/09 07:50:22;;;;;;;;;1.00;1.00;;;;;39.33;21.58;101978.47;5053293;28;45323;-78
2022/07/09 07:52:48;;;;;;;;;4.50;4.50;;;;;39.57;21.38;101952.50;5054793;28;45414;-80
2022/07/09 07:55:14;;;;;;;;;4.00;4.00;;;;;39.63;20.29;101964.69;5051929;28;47974;-79
2022/07/09 07:57:40;;;;;;;;;3.25;3.00;;;;;39.56;20.80;101964.59;5055373;28;45511;-80
2022/07/09 08:00:07;;;;;;;;;4.00;4.00;;;;;39.52;20.73;101956.84;5054677;28;45382;-80
2022/07/09 08:02:34;;;;;;;;;3.25;3.25;;;;;39.34;20.44;101963.56;5054742;28;45374;-79
2022/07/09 08:05:00;;;;;;;;;4.00;4.00;;;;;39.19;21.70;101958.06;5054389;28;46321;-80
2022/07/09 08:07:25;;;;;;;;;5.25;5.00;;;;;39.26;21.34;101970.03;5054011;28;45502;-79
2022/07/09 08:09:51;;;;;;;;;3.25;3.00;;;;;39.44;20.94;101936.53;5054313;28;45356;-79
2022/07/09 08:12:16;;;;;;;;;4.25;3.00;;;;;39.84;20.58;101957.53;5056274;28;45515;-79
2022/07/09 08:14:42;;;;;;;;;3.50;3.50;;;;;39.82;20.31;101945.81;5056929;28;45449;-80
2022/07/09 08:17:07;;;;;;;;;3.75;2.00;;;;;39.76;21.03;101959.34;5054621;28;45327;-79
2022/07/09 08:19:32;;;;;;;;;3.25;3.00;;;;;39.76;21.47;101950.19;5055314;28;45441;-80
2022/07/09 08:21:58;;;;;;;;;3.00;3.00;;;;;39.48;20.09;101961.03;5054048;28;45632;-80
2022/07/09 08:24:23;;;;;;;;;2.50;2.50;;;;;39.42;20.44;101960.75;5054737;28;45933;-80
2022/07/09 08:26:48;;;;;;;;;4.00;2.00;;;;;39.56;20.47;101948.00;5054992;28;45536;-79
2022/07/09 08:29:14;;;;;;;;;4.50;3.00;;;;;39.62;20.08;101933.41;5054564;28;45386;-79
2022/07/09 08:31:39;;;;;;;;;4.00;4.00;;;;;39.49;20.66;101946.16;5054301;28;45499;-79
2022/07/09 08:34:05;;;;;;;;;4.50;4.00;;;;;39.50;20.24;101942.34;5054354;28;46124;-79
2022/07/09 08:36:30;;;;;;;;;2.00;2.00;;;;;39.21;20.32;101905.34;5060286;28;45384;-80
2022/07/09 08:38:55;;;;;;;;;3.00;2.00;;;;;39.37;21.44;101943.00;5062124;28;45509;-79
2022/07/09 08:41:23;;;;;;;;;2.50;2.00;;;;;39.54;20.08;101940.91;5060344;28;45679;-78
2022/07/09 08:43:51;;;;;;;;;2.75;2.75;;;;;39.69;20.03;101941.81;5072888;28;46187;-78
2022/07/09 08:46:17;;;;;;;;;3.00;2.50;;;;;39.75;20.09;101940.16;5055361;28;45346;-80
2022/07/09 08:48:44;;;;;;;;;3.25;2.00;;;;;39.71;19.89;101944.38;5054072;28;45472;-79
2022/07/09 08:51:10;;;;;;;;;2.00;2.00;;;;;39.53;20.61;101948.34;5054444;28;45508;-79
2022/07/09 08:53:40;;;;;;;;;3.50;3.50;;;;;39.87;20.52;101935.00;5053446;28;46386;-78
2022/07/09 08:56:06;;;;;;;;;2.00;2.00;;;;;40.19;20.45;101935.66;5053859;28;45471;-79
2022/07/09 08:58:32;;;;;;;;;1.00;1.00;;;;;40.39;19.94;101933.97;5053773;28;45361;-79
2022/07/09 09:00:58;;;;;;;;;2.50;2.00;;;;;40.36;18.83;101934.38;5053708;28;45728;-80
2022/07/09 09:03:24;;;;;;;;;2.25;2.25;;;;;40.29;19.11;101928.72;5053587;28;45631;-79
2022/07/09 09:06:08;;;;;;;;;5.00;4.25;;;;;40.00;20.04;101918.63;5053734;28;45354;-78
2022/07/09 09:08:42;;;;;;;;;4.00;4.00;;;;;40.14;19.48;101920.47;5053763;28;45474;-79
2022/07/09 09:11:13;;;;;;;;;3.50;3.00;;;;;39.86;19.30;101925.88;5054564;28;45584;-80
2022/07/09 09:13:46;;;;;;;;;2.00;2.00;;;;;39.90;20.12;101931.84;5054920;28;45431;-80
2022/07/09 09:16:13;;;;;;;;;1.00;1.00;;;;;40.04;20.48;101928.25;5087657;27;45376;-79
2022/07/09 09:18:56;;;;;;;;;1.00;1.00;;;;;40.19;19.34;101894.13;5070316;28;45546;-79
2022/07/09 09:21:25;;;;;;;;;2.00;2.00;;;;;40.06;19.08;101909.53;5053353;28;45490;-80
2022/07/09 09:23:57;;;;;;;;;3.25;3.25;;;;;40.10;19.49;101916.41;5054161;28;45502;-80
2022/07/09 09:26:24;;;;;;;;;1.00;1.00;;;;;39.50;20.08;101915.56;5053862;28;45500;-80
2022/07/09 09:28:55;;;;;;;;;2.00;2.00;;;;;39.23;19.79;101901.34;5054262;28;45486;-80
2022/07/09 09:31:25;;;;;;;;;2.00;1.00;;;;;38.81;20.16;101915.72;5053331;28;45570;-79
2022/07/09 09:33:53;;;;;;;;;2.00;1.25;;;;;38.79;20.58;101915.88;5053871;28;46394;-80
2022/07/09 09:36:36;;;;;;;;;2.00;2.00;;;;;39.20;20.78;101920.22;5052574;28;45507;-79
2022/07/09 09:39:08;;;;;;;;;1.75;1.00;;;;;39.61;19.90;101920.63;5053034;28;45441;-80
2022/07/09 09:41:34;;;;;;;;;0.75;0.75;;;;;39.83;20.36;101922.59;5070024;28;45371;-81
2022/07/09 09:44:05;;;;;;;;;2.00;1.25;;;;;40.15;19.87;101918.59;5053796;28;45434;-80
2022/07/09 09:46:33;;;;;;;;;2.00;2.00;;;;;40.05;20.04;101912.50;5053869;28;45406;-80
2022/07/09 09:48:59;;;;;;;;;3.50;3.50;;;;;39.56;19.82;101914.81;5053711;28;45364;-79
2022/07/09 09:51:30;;;;;;;;;2.00;2.00;;;;;39.38;20.00;101923.47;5052218;28;45689;-80
2022/07/09 09:53:57;;;;;;;;;1.50;1.50;;;;;39.14;19.98;101898.88;5068359;28;47675;-79
2022/07/09 09:56:24;;;;;;;;;2.00;2.00;;;;;39.50;20.34;101923.00;5053012;28;45658;-80
2022/07/09 09:58:50;;;;;;;;;2.75;2.00;;;;;39.65;20.73;101915.59;5053481;28;45529;-78
2022/07/09 10:01:16;;;;;;;;;2.00;2.00;;;;;39.34;20.36;101921.25;5053414;28;45419;-79
2022/07/09 10:03:41;;;;;;;;;3.00;3.00;;;;;39.25;21.44;101895.63;5052588;28;46386;-79
2022/07/09 10:06:07;;;;;;;;;3.25;3.25;;;;;39.50;20.56;101925.78;5052242;28;45560;-79
2022/07/09 10:08:33;;;;;;;;;2.50;2.00;;;;;39.71;20.63;101909.28;5052923;28;45437;-79
2022/07/09 10:10:58;;;;;;;;;1.25;1.25;;;;;39.84;19.63;101918.81;5053416;28;45390;-79
2022/07/09 10:13:23;;;;;;;;;3.25;3.00;;;;;39.50;20.16;101921.09;5054018;28;46455;-80
2022/07/09 10:15:50;;;;;;;;;2.00;1.00;;;;;39.19;20.88;101924.00;5055315;28;45480;-79
2022/07/09 10:18:18;;;;;;;;;4.00;3.00;;;;;39.44;20.01;101919.94;5056723;28;45399;-79
2022/07/09 10:20:44;;;;;;;;;1.25;1.25;;;;;39.73;20.60;101912.72;5088130;27;45435;-79
2022/07/09 10:23:23;;;;;;;;;5.00;4.00;;;;;39.70;20.34;101909.47;5057187;28;45523;-80
2022/07/09 10:25:55;;;;;;;;;2.00;2.00;;;;;39.30;20.76;101915.28;5057100;28;45437;-79
2022/07/09 10:28:22;;;;;;;;;1.50;1.50;;;;;39.25;20.77;101898.38;5056821;28;45489;-79
2022/07/09 10:30:48;;;;;;;;;3.00;3.00;;;;;39.37;20.39;101901.53;5060505;28;45514;-79
2022/07/09 10:33:22;;;;;;;;;1.00;1.00;;;;;39.29;19.77;101908.03;5083582;28;46349;-80
2022/07/09 10:35:53;;;;;;;;;3.50;3.50;;;;;38.34;21.61;101909.31;5064853;28;45522;-81
2022/07/09 10:38:22;;;;;;;;;2.00;2.00;;;;;37.96;21.80;101893.47;5061715;28;45397;-79
2022/07/09 10:40:56;;;;;;;;;4.00;4.00;;;;;37.90;21.66;101874.91;5057707;28;45281;-82
2022/07/09 10:43:41;;;;;;;;;4.00;3.00;;;;;38.20;21.18;101886.13;5056259;28;46180;-80
2022/07/09 10:46:13;;;;;;;;;4.25;3.25;;;;;38.63;21.29;101885.63;5056595;28;45506;-82
2022/07/09 10:48:39;;;;;;;;;3.00;3.00;;;;;38.85;21.42;101867.34;5059191;28;45467;-82
2022/07/09 10:51:04;;;;;;;;;1.50;1.50;;;;;39.15;21.02;101873.81;5059748;28;45495;-82
2022/07/09 10:53:30;;;;;;;;;4.25;3.75;;;;;39.28;20.81;101878.66;5057552;28;45506;-81
2022/07/09 10:55:55;;;;;;;;;1.50;1.50;;;;;39.48;21.17;101883.63;5057255;28;45522;-81
2022/07/09 10:58:24;;;;;;;;;6.75;5.75;;;;;39.00;20.74;101871.00;5057377;28;45474;-80
2022/07/09 11:01:00;;;;;;;;;1.75;1.75;;;;;38.78;20.50;101847.03;5056618;28;45351;-81
2022/07/09 11:03:26;;;;;;;;;2.00;2.00;;;;;38.47;20.84;101825.91;5055163;28;45395;-81
2022/07/09 11:05:52;;;;;;;;;1.25;1.25;;;;;38.28;21.39;101841.94;5055756;28;45643;-80
2022/07/09 11:08:18;;;;;;;;;2.25;2.25;;;;;38.23;20.51;101852.63;5055976;28;45424;-82
2022/07/09 11:10:43;;;;;;;;;1.00;1.00;;;;;38.15;21.35;101872.00;5056096;28;45546;-81
2022/07/09 11:13:09;;;;;;;;;2.00;2.00;;;;;37.93;21.35;101862.63;5054702;28;48059;-81
2022/07/09 11:15:36;;;;;;;;;2.00;2.00;;;;;37.93;21.93;101860.75;5055642;28;45859;-80
2022/07/09 11:18:16;;;;;;;;;1.00;1.00;;;;;37.97;22.68;101852.97;5056669;28;45484;-80
2022/07/09 11:20:46;;;;;;;;;1.50;1.50;;;;;38.10;21.25;101868.91;5056324;28;45313;-82